sensor_id;sensor_type;location;lat;lon;timestamp;P1;durP1;ratioP1;P2;durP2;ratioP2
15831;SDS011;8016;49.928;9.372;2022-10-30T00:00:41;12.13;;;9.67;;
15831;SDS011;8016;49.928;9.372;2022-10-30T00:03:11;17.13;;;10.60;;
15831;SDS011;8016;49.928;9.372;2022-10-30T00:05:43;14.13;;;10.20;;
15831;SDS011;8016;49.928;9.372;2022-10-30T00:08:11;16.27;;;9.73;;
15831;SDS011;8016;49.928;9.372;2022-10-30T00:10:37;11.87;;;9.13;;
15831;SDS011;8016;49.928;9.372;2022-10-30T00:13:03;13.60;;;9.00;;
15831;SDS011;8016;49.928;9.372;2022-10-30T00:15:29;12.77;;;9.57;;
15831;SDS011;8016;49.928;9.372;2022-10-30T00:17:55;12.03;;;9.23;;
15831;SDS011;8016;49.928;9.372;2022-10-30T00:20:21;18.63;;;9.63;;
15831;SDS011;8016;49.928;9.372;2022-10-30T00:22:47;13.03;;;9.23;;
15831;SDS011;8016;49.928;9.372;2022-10-30T00:25:13;15.93;;;9.20;;
15831;SDS011;8016;49.928;9.372;2022-10-30T00:27:39;16.17;;;9.43;;
15831;SDS011;8016;49.928;9.372;2022-10-30T00:30:05;16.47;;;8.47;;
15831;SDS011;8016;49.928;9.372;2022-10-30T00:32:32;8.80;;;7.57;;
15831;SDS011;8016;49.928;9.372;2022-10-30T00:34:58;18.33;;;9.83;;
15831;SDS011;8016;49.928;9.372;2022-10-30T00:37:24;10.47;;;8.00;;
15831;SDS011;8016;49.928;9.372;2022-10-30T00:39:50;12.07;;;8.37;;
15831;SDS011;8016;49.928;9.372;2022-10-30T00:42:16;15.80;;;9.50;;
15831;SDS011;8016;49.928;9.372;2022-10-30T00:44:48;11.87;;;9.67;;
15831;SDS011;8016;49.928;9.372;2022-10-30T00:47:19;13.73;;;9.30;;
15831;SDS011;8016;49.928;9.372;2022-10-30T00:49:52;9.73;;;7.23;;
15831;SDS011;8016;49.928;9.372;2022-10-30T00:52:20;11.03;;;6.80;;
15831;SDS011;8016;49.928;9.372;2022-10-30T00:54:47;9.80;;;6.60;;
15831;SDS011;8016;49.928;9.372;2022-10-30T00:57:13;12.57;;;6.47;;
15831;SDS011;8016;49.928;9.372;2022-10-30T00:59:39;10.27;;;6.37;;
15831;SDS011;8016;49.928;9.372;2022-10-30T01:02:06;11.60;;;7.17;;
15831;SDS011;8016;49.928;9.372;2022-10-30T01:04:32;6.97;;;6.10;;
15831;SDS011;8016;49.928;9.372;2022-10-30T01:07:01;6.57;;;4.70;;
15831;SDS011;8016;49.928;9.372;2022-10-30T01:09:30;9.17;;;5.30;;
15831;SDS011;8016;49.928;9.372;2022-10-30T01:11:56;8.73;;;5.23;;
15831;SDS011;8016;49.928;9.372;2022-10-30T01:14:22;8.73;;;5.83;;
15831;SDS011;8016;49.928;9.372;2022-10-30T01:24:45;9.17;;;6.27;;
15831;SDS011;8016;49.928;9.372;2022-10-30T01:35:18;10.60;;;7.53;;
15831;SDS011;8016;49.928;9.372;2022-10-30T01:40:42;13.87;;;8.00;;
15831;SDS011;8016;49.928;9.372;2022-10-30T01:43:08;10.83;;;7.27;;
15831;SDS011;8016;49.928;9.372;2022-10-30T01:50:37;12.53;;;6.87;;
15831;SDS011;8016;49.928;9.372;2022-10-30T01:53:28;9.93;;;6.63;;
15831;SDS011;8016;49.928;9.372;2022-10-30T01:58:28;8.77;;;5.47;;
15831;SDS011;8016;49.928;9.372;2022-10-30T02:00:57;10.67;;;5.30;;
15831;SDS011;8016;49.928;9.372;2022-10-30T02:03:24;7.37;;;5.00;;
15831;SDS011;8016;49.928;9.372;2022-10-30T02:05:50;10.53;;;5.73;;
15831;SDS011;8016;49.928;9.372;2022-10-30T02:08:17;9.70;;;6.07;;
15831;SDS011;8016;49.928;9.372;2022-10-30T02:10:43;10.60;;;6.63;;
15831;SDS011;8016;49.928;9.372;2022-10-30T02:13:10;12.10;;;6.70;;
15831;SDS011;8016;49.928;9.372;2022-10-30T02:15:36;10.53;;;6.97;;
15831;SDS011;8016;49.928;9.372;2022-10-30T02:18:03;16.50;;;8.40;;
15831;SDS011;8016;49.928;9.372;2022-10-30T02:20:29;13.83;;;7.73;;
15831;SDS011;8016;49.928;9.372;2022-10-30T02:22:56;18.13;;;7.30;;
15831;SDS011;8016;49.928;9.372;2022-10-30T02:25:22;18.63;;;6.53;;
15831;SDS011;8016;49.928;9.372;2022-10-30T02:27:48;16.63;;;7.70;;
15831;SDS011;8016;49.928;9.372;2022-10-30T02:30:14;19.33;;;7.40;;
15831;SDS011;8016;49.928;9.372;2022-10-30T02:32:40;23.50;;;8.27;;
15831;SDS011;8016;49.928;9.372;2022-10-30T02:35:06;19.17;;;6.40;;
15831;SDS011;8016;49.928;9.372;2022-10-30T02:37:32;13.87;;;5.90;;
15831;SDS011;8016;49.928;9.372;2022-10-30T02:39:59;16.60;;;5.07;;
15831;SDS011;8016;49.928;9.372;2022-10-30T02:42:25;10.97;;;5.60;;
15831;SDS011;8016;49.928;9.372;2022-10-30T02:44:51;18.87;;;6.27;;
15831;SDS011;8016;49.928;9.372;2022-10-30T02:47:17;16.90;;;7.93;;
15831;SDS011;8016;49.928;9.372;2022-10-30T02:49:43;20.13;;;7.70;;
15831;SDS011;8016;49.928;9.372;2022-10-30T02:52:09;13.57;;;7.50;;
15831;SDS011;8016;49.928;9.372;2022-10-30T02:54:35;17.10;;;6.70;;
15831;SDS011;8016;49.928;9.372;2022-10-30T02:57:01;18.93;;;6.90;;
15831;SDS011;8016;49.928;9.372;2022-10-30T02:59:28;19.30;;;6.67;;
15831;SDS011;8016;49.928;9.372;2022-10-30T03:01:54;20.93;;;7.60;;
15831;SDS011;8016;49.928;9.372;2022-10-30T03:04:20;15.00;;;6.30;;
15831;SDS011;8016;49.928;9.372;2022-10-30T03:06:46;14.23;;;6.77;;
15831;SDS011;8016;49.928;9.372;2022-10-30T03:09:12;12.10;;;7.30;;
15831;SDS011;8016;49.928;9.372;2022-10-30T03:11:38;18.70;;;7.43;;
15831;SDS011;8016;49.928;9.372;2022-10-30T03:14:04;14.87;;;7.43;;
15831;SDS011;8016;49.928;9.372;2022-10-30T03:16:30;15.23;;;8.37;;
15831;SDS011;8016;49.928;9.372;2022-10-30T03:18:58;18.87;;;8.30;;
15831;SDS011;8016;49.928;9.372;2022-10-30T03:21:26;22.67;;;9.47;;
15831;SDS011;8016;49.928;9.372;2022-10-30T03:23:53;29.90;;;9.60;;
15831;SDS011;8016;49.928;9.372;2022-10-30T03:26:19;18.67;;;8.33;;
15831;SDS011;8016;49.928;9.372;2022-10-30T03:28:45;13.83;;;7.00;;
15831;SDS011;8016;49.928;9.372;2022-10-30T03:31:12;31.27;;;8.00;;
15831;SDS011;8016;49.928;9.372;2022-10-30T03:33:39;19.53;;;7.80;;
15831;SDS011;8016;49.928;9.372;2022-10-30T03:36:05;15.43;;;8.37;;
15831;SDS011;8016;49.928;9.372;2022-10-30T03:38:31;25.40;;;7.87;;
15831;SDS011;8016;49.928;9.372;2022-10-30T03:40:57;19.47;;;6.77;;
15831;SDS011;8016;49.928;9.372;2022-10-30T03:43:23;13.50;;;5.57;;
15831;SDS011;8016;49.928;9.372;2022-10-30T03:45:51;19.03;;;5.20;;
15831;SDS011;8016;49.928;9.372;2022-10-30T03:48:17;18.90;;;7.73;;
15831;SDS011;8016;49.928;9.372;2022-10-30T03:50:43;12.50;;;6.63;;
15831;SDS011;8016;49.928;9.372;2022-10-30T03:53:10;10.97;;;6.40;;
15831;SDS011;8016;49.928;9.372;2022-10-30T03:55:36;10.43;;;6.07;;
15831;SDS011;8016;49.928;9.372;2022-10-30T03:58:02;15.97;;;7.20;;
15831;SDS011;8016;49.928;9.372;2022-10-30T04:00:28;21.07;;;7.27;;
15831;SDS011;8016;49.928;9.372;2022-10-30T04:02:54;20.40;;;7.00;;
15831;SDS011;8016;49.928;9.372;2022-10-30T04:05:21;12.50;;;6.97;;
15831;SDS011;8016;49.928;9.372;2022-10-30T04:07:47;12.37;;;7.83;;
15831;SDS011;8016;49.928;9.372;2022-10-30T04:10:13;16.03;;;8.07;;
15831;SDS011;8016;49.928;9.372;2022-10-30T04:12:39;15.13;;;7.90;;
15831;SDS011;8016;49.928;9.372;2022-10-30T04:15:06;15.80;;;6.80;;
15831;SDS011;8016;49.928;9.372;2022-10-30T04:17:33;15.17;;;6.43;;
15831;SDS011;8016;49.928;9.372;2022-10-30T04:19:59;12.90;;;5.80;;
15831;SDS011;8016;49.928;9.372;2022-10-30T04:22:25;9.80;;;5.53;;
15831;SDS011;8016;49.928;9.372;2022-10-30T04:24:51;8.97;;;5.67;;
15831;SDS011;8016;49.928;9.372;2022-10-30T04:27:17;12.40;;;6.30;;
15831;SDS011;8016;49.928;9.372;2022-10-30T04:29:44;24.23;;;6.50;;
15831;SDS011;8016;49.928;9.372;2022-10-30T04:32:10;15.03;;;5.40;;
15831;SDS011;8016;49.928;9.372;2022-10-30T04:34:37;12.83;;;6.07;;
15831;SDS011;8016;49.928;9.372;2022-10-30T04:37:03;13.70;;;5.50;;
15831;SDS011;8016;49.928;9.372;2022-10-30T04:39:29;20.90;;;6.10;;
15831;SDS011;8016;49.928;9.372;2022-10-30T04:41:55;29.30;;;7.83;;
15831;SDS011;8016;49.928;9.372;2022-10-30T04:44:21;32.13;;;8.10;;
15831;SDS011;8016;49.928;9.372;2022-10-30T04:46:47;16.10;;;6.87;;
15831;SDS011;8016;49.928;9.372;2022-10-30T04:49:13;26.03;;;8.40;;
15831;SDS011;8016;49.928;9.372;2022-10-30T04:51:39;31.10;;;7.17;;
15831;SDS011;8016;49.928;9.372;2022-10-30T04:54:05;14.33;;;6.67;;
15831;SDS011;8016;49.928;9.372;2022-10-30T04:56:31;11.67;;;5.87;;
15831;SDS011;8016;49.928;9.372;2022-10-30T04:58:57;15.47;;;6.23;;
15831;SDS011;8016;49.928;9.372;2022-10-30T05:01:23;10.53;;;5.70;;
15831;SDS011;8016;49.928;9.372;2022-10-30T05:03:49;10.63;;;6.63;;
15831;SDS011;8016;49.928;9.372;2022-10-30T05:06:20;9.10;;;5.30;;
15831;SDS011;8016;49.928;9.372;2022-10-30T05:08:46;7.63;;;5.87;;
15831;SDS011;8016;49.928;9.372;2022-10-30T05:11:12;11.10;;;6.13;;
15831;SDS011;8016;49.928;9.372;2022-10-30T05:13:38;10.30;;;5.30;;
15831;SDS011;8016;49.928;9.372;2022-10-30T05:16:04;15.00;;;5.60;;
15831;SDS011;8016;49.928;9.372;2022-10-30T05:18:30;7.10;;;4.83;;
15831;SDS011;8016;49.928;9.372;2022-10-30T05:20:56;20.67;;;5.43;;
15831;SDS011;8016;49.928;9.372;2022-10-30T05:23:22;17.73;;;6.80;;
15831;SDS011;8016;49.928;9.372;2022-10-30T05:25:48;12.93;;;6.33;;
15831;SDS011;8016;49.928;9.372;2022-10-30T05:28:14;27.37;;;7.30;;
15831;SDS011;8016;49.928;9.372;2022-10-30T05:30:40;17.83;;;6.63;;
15831;SDS011;8016;49.928;9.372;2022-10-30T05:33:08;14.53;;;6.30;;
15831;SDS011;8016;49.928;9.372;2022-10-30T05:35:34;20.00;;;7.27;;
15831;SDS011;8016;49.928;9.372;2022-10-30T05:38:01;11.57;;;7.30;;
15831;SDS011;8016;49.928;9.372;2022-10-30T05:40:27;40.90;;;8.37;;
15831;SDS011;8016;49.928;9.372;2022-10-30T05:42:54;50.70;;;10.43;;
15831;SDS011;8016;49.928;9.372;2022-10-30T05:45:20;21.53;;;7.70;;
15831;SDS011;8016;49.928;9.372;2022-10-30T05:47:55;18.37;;;6.73;;
15831;SDS011;8016;49.928;9.372;2022-10-30T05:50:22;15.87;;;6.30;;
15831;SDS011;8016;49.928;9.372;2022-10-30T05:52:48;9.27;;;5.77;;
15831;SDS011;8016;49.928;9.372;2022-10-30T05:55:14;11.53;;;6.13;;
15831;SDS011;8016;49.928;9.372;2022-10-30T05:57:40;7.90;;;6.00;;
15831;SDS011;8016;49.928;9.372;2022-10-30T06:00:06;9.47;;;6.87;;
15831;SDS011;8016;49.928;9.372;2022-10-30T06:02:32;13.40;;;6.87;;
15831;SDS011;8016;49.928;9.372;2022-10-30T06:04:58;20.83;;;11.30;;
15831;SDS011;8016;49.928;9.372;2022-10-30T06:07:24;18.83;;;12.97;;
15831;SDS011;8016;49.928;9.372;2022-10-30T06:09:50;17.70;;;10.93;;
15831;SDS011;8016;49.928;9.372;2022-10-30T06:12:16;17.87;;;10.43;;
15831;SDS011;8016;49.928;9.372;2022-10-30T06:14:42;20.43;;;9.93;;
15831;SDS011;8016;49.928;9.372;2022-10-30T06:17:08;16.83;;;11.10;;
15831;SDS011;8016;49.928;9.372;2022-10-30T06:19:34;12.93;;;8.50;;
15831;SDS011;8016;49.928;9.372;2022-10-30T06:22:00;12.47;;;8.63;;
15831;SDS011;8016;49.928;9.372;2022-10-30T06:24:26;19.10;;;10.23;;
15831;SDS011;8016;49.928;9.372;2022-10-30T06:26:51;32.70;;;24.23;;
15831;SDS011;8016;49.928;9.372;2022-10-30T06:29:17;52.03;;;30.90;;
15831;SDS011;8016;49.928;9.372;2022-10-30T06:31:43;30.00;;;20.97;;
15831;SDS011;8016;49.928;9.372;2022-10-30T06:34:09;21.13;;;13.23;;
15831;SDS011;8016;49.928;9.372;2022-10-30T06:36:35;21.37;;;12.73;;
15831;SDS011;8016;49.928;9.372;2022-10-30T06:39:01;19.83;;;13.93;;
15831;SDS011;8016;49.928;9.372;2022-10-30T06:41:27;21.30;;;12.83;;
15831;SDS011;8016;49.928;9.372;2022-10-30T06:43:53;22.67;;;15.07;;
15831;SDS011;8016;49.928;9.372;2022-10-30T06:46:19;16.80;;;12.97;;
15831;SDS011;8016;49.928;9.372;2022-10-30T06:48:45;22.50;;;15.87;;
15831;SDS011;8016;49.928;9.372;2022-10-30T06:51:12;24.33;;;19.37;;
15831;SDS011;8016;49.928;9.372;2022-10-30T06:53:39;25.67;;;18.47;;
15831;SDS011;8016;49.928;9.372;2022-10-30T06:56:05;24.57;;;16.70;;
15831;SDS011;8016;49.928;9.372;2022-10-30T06:58:31;18.50;;;14.40;;
15831;SDS011;8016;49.928;9.372;2022-10-30T07:01:03;28.13;;;13.77;;
15831;SDS011;8016;49.928;9.372;2022-10-30T07:03:29;26.90;;;12.40;;
15831;SDS011;8016;49.928;9.372;2022-10-30T07:05:55;20.20;;;12.20;;
15831;SDS011;8016;49.928;9.372;2022-10-30T07:08:21;24.10;;;11.93;;
15831;SDS011;8016;49.928;9.372;2022-10-30T07:10:47;18.20;;;11.13;;
15831;SDS011;8016;49.928;9.372;2022-10-30T07:13:12;12.43;;;9.47;;
15831;SDS011;8016;49.928;9.372;2022-10-30T07:15:38;30.17;;;11.07;;
15831;SDS011;8016;49.928;9.372;2022-10-30T07:18:04;12.20;;;8.90;;
15831;SDS011;8016;49.928;9.372;2022-10-30T07:20:31;21.27;;;10.47;;
15831;SDS011;8016;49.928;9.372;2022-10-30T07:22:58;19.50;;;9.30;;
15831;SDS011;8016;49.928;9.372;2022-10-30T07:25:25;13.53;;;9.17;;
15831;SDS011;8016;49.928;9.372;2022-10-30T07:27:52;14.50;;;9.17;;
15831;SDS011;8016;49.928;9.372;2022-10-30T07:30:19;14.87;;;10.00;;
15831;SDS011;8016;49.928;9.372;2022-10-30T07:32:47;22.30;;;9.70;;
15831;SDS011;8016;49.928;9.372;2022-10-30T07:35:20;21.10;;;10.53;;
15831;SDS011;8016;49.928;9.372;2022-10-30T07:37:46;22.20;;;11.37;;
15831;SDS011;8016;49.928;9.372;2022-10-30T07:40:12;15.93;;;11.33;;
15831;SDS011;8016;49.928;9.372;2022-10-30T07:42:38;20.97;;;9.00;;
15831;SDS011;8016;49.928;9.372;2022-10-30T07:45:04;19.53;;;9.83;;
15831;SDS011;8016;49.928;9.372;2022-10-30T07:47:30;16.87;;;9.43;;
15831;SDS011;8016;49.928;9.372;2022-10-30T07:49:56;15.67;;;9.67;;
15831;SDS011;8016;49.928;9.372;2022-10-30T07:52:22;20.00;;;11.80;;
15831;SDS011;8016;49.928;9.372;2022-10-30T07:54:48;15.00;;;9.77;;
15831;SDS011;8016;49.928;9.372;2022-10-30T07:57:14;13.00;;;10.30;;
15831;SDS011;8016;49.928;9.372;2022-10-30T07:59:40;16.03;;;10.57;;
15831;SDS011;8016;49.928;9.372;2022-10-30T08:02:07;11.97;;;10.27;;
15831;SDS011;8016;49.928;9.372;2022-10-30T08:04:33;11.60;;;8.73;;
15831;SDS011;8016;49.928;9.372;2022-10-30T08:06:59;13.53;;;9.40;;
15831;SDS011;8016;49.928;9.372;2022-10-30T08:09:25;13.17;;;8.43;;
15831;SDS011;8016;49.928;9.372;2022-10-30T08:11:51;13.27;;;8.27;;
15831;SDS011;8016;49.928;9.372;2022-10-30T08:14:17;14.93;;;7.87;;
15831;SDS011;8016;49.928;9.372;2022-10-30T08:16:44;9.43;;;7.70;;
15831;SDS011;8016;49.928;9.372;2022-10-30T08:19:10;11.23;;;8.53;;
15831;SDS011;8016;49.928;9.372;2022-10-30T08:21:36;10.33;;;7.87;;
15831;SDS011;8016;49.928;9.372;2022-10-30T08:24:02;13.10;;;8.27;;
15831;SDS011;8016;49.928;9.372;2022-10-30T08:26:28;18.33;;;7.73;;
15831;SDS011;8016;49.928;9.372;2022-10-30T08:28:54;11.43;;;7.90;;
15831;SDS011;8016;49.928;9.372;2022-10-30T08:31:20;7.57;;;6.57;;
15831;SDS011;8016;49.928;9.372;2022-10-30T08:33:46;7.00;;;6.37;;
15831;SDS011;8016;49.928;9.372;2022-10-30T08:36:12;6.63;;;6.03;;
15831;SDS011;8016;49.928;9.372;2022-10-30T08:38:38;6.87;;;5.90;;
15831;SDS011;8016;49.928;9.372;2022-10-30T08:41:04;7.67;;;5.90;;
15831;SDS011;8016;49.928;9.372;2022-10-30T08:43:30;7.67;;;6.90;;
15831;SDS011;8016;49.928;9.372;2022-10-30T08:45:57;8.40;;;5.97;;
15831;SDS011;8016;49.928;9.372;2022-10-30T08:48:23;5.63;;;4.97;;
15831;SDS011;8016;49.928;9.372;2022-10-30T08:50:49;6.87;;;5.17;;
15831;SDS011;8016;49.928;9.372;2022-10-30T08:53:15;4.90;;;4.50;;
15831;SDS011;8016;49.928;9.372;2022-10-30T08:55:41;5.10;;;4.60;;
15831;SDS011;8016;49.928;9.372;2022-10-30T08:58:07;4.13;;;3.83;;
15831;SDS011;8016;49.928;9.372;2022-10-30T09:00:33;4.60;;;4.20;;
15831;SDS011;8016;49.928;9.372;2022-10-30T09:02:59;4.80;;;4.23;;
15831;SDS011;8016;49.928;9.372;2022-10-30T09:05:25;6.10;;;5.23;;
15831;SDS011;8016;49.928;9.372;2022-10-30T09:07:55;5.27;;;4.87;;
15831;SDS011;8016;49.928;9.372;2022-10-30T09:10:21;6.53;;;5.93;;
15831;SDS011;8016;49.928;9.372;2022-10-30T09:12:52;6.40;;;5.90;;
15831;SDS011;8016;49.928;9.372;2022-10-30T09:15:18;6.87;;;6.27;;
15831;SDS011;8016;49.928;9.372;2022-10-30T09:17:44;6.90;;;5.93;;
15831;SDS011;8016;49.928;9.372;2022-10-30T09:20:10;6.80;;;5.77;;
15831;SDS011;8016;49.928;9.372;2022-10-30T09:22:39;7.17;;;6.40;;
15831;SDS011;8016;49.928;9.372;2022-10-30T09:25:06;12.27;;;6.87;;
15831;SDS011;8016;49.928;9.372;2022-10-30T09:27:36;7.97;;;6.23;;
15831;SDS011;8016;49.928;9.372;2022-10-30T09:30:02;10.47;;;6.63;;
15831;SDS011;8016;49.928;9.372;2022-10-30T09:32:28;7.70;;;6.63;;
15831;SDS011;8016;49.928;9.372;2022-10-30T09:34:54;8.03;;;6.57;;
15831;SDS011;8016;49.928;9.372;2022-10-30T09:37:20;7.30;;;6.37;;
15831;SDS011;8016;49.928;9.372;2022-10-30T09:39:47;8.27;;;6.17;;
15831;SDS011;8016;49.928;9.372;2022-10-30T09:47:21;10.73;;;6.23;;
15831;SDS011;8016;49.928;9.372;2022-10-30T09:50:12;11.33;;;6.87;;
15831;SDS011;8016;49.928;9.372;2022-10-30T09:55:37;9.40;;;6.83;;
15831;SDS011;8016;49.928;9.372;2022-10-30T10:00:36;6.83;;;6.13;;
15831;SDS011;8016;49.928;9.372;2022-10-30T10:05:51;6.63;;;5.17;;
15831;SDS011;8016;49.928;9.372;2022-10-30T10:08:20;11.17;;;9.33;;
15831;SDS011;8016;49.928;9.372;2022-10-30T10:10:57;5.80;;;5.00;;
15831;SDS011;8016;49.928;9.372;2022-10-30T10:15:55;6.50;;;5.03;;
15831;SDS011;8016;49.928;9.372;2022-10-30T10:18:22;6.80;;;5.50;;
15831;SDS011;8016;49.928;9.372;2022-10-30T10:20:51;8.93;;;5.10;;
15831;SDS011;8016;49.928;9.372;2022-10-30T10:23:34;7.27;;;4.90;;
15831;SDS011;8016;49.928;9.372;2022-10-30T10:36:46;18.90;;;12.43;;
15831;SDS011;8016;49.928;9.372;2022-10-30T10:41:53;6.60;;;5.03;;
15831;SDS011;8016;49.928;9.372;2022-10-30T10:47:33;6.63;;;4.80;;
15831;SDS011;8016;49.928;9.372;2022-10-30T10:49:46;7.03;;;4.93;;
15831;SDS011;8016;49.928;9.372;2022-10-30T10:52:22;11.47;;;6.10;;
15831;SDS011;8016;49.928;9.372;2022-10-30T10:54:54;7.00;;;5.37;;
15831;SDS011;8016;49.928;9.372;2022-10-30T10:59:54;14.10;;;10.27;;
15831;SDS011;8016;49.928;9.372;2022-10-30T11:02:32;10.47;;;8.30;;
15831;SDS011;8016;49.928;9.372;2022-10-30T11:05:03;10.47;;;5.47;;
15831;SDS011;8016;49.928;9.372;2022-10-30T11:07:31;8.87;;;5.23;;
15831;SDS011;8016;49.928;9.372;2022-10-30T11:09:58;8.70;;;4.87;;
15831;SDS011;8016;49.928;9.372;2022-10-30T11:12:28;8.27;;;4.20;;
15831;SDS011;8016;49.928;9.372;2022-10-30T11:14:56;7.13;;;4.43;;
15831;SDS011;8016;49.928;9.372;2022-10-30T11:17:27;13.50;;;5.90;;
15831;SDS011;8016;49.928;9.372;2022-10-30T11:19:56;10.53;;;6.37;;
15831;SDS011;8016;49.928;9.372;2022-10-30T11:22:26;10.60;;;4.37;;
15831;SDS011;8016;49.928;9.372;2022-10-30T11:24:54;11.90;;;7.47;;
15831;SDS011;8016;49.928;9.372;2022-10-30T11:27:24;13.43;;;7.67;;
15831;SDS011;8016;49.928;9.372;2022-10-30T11:32:17;9.13;;;5.53;;
15831;SDS011;8016;49.928;9.372;2022-10-30T11:34:46;9.97;;;3.63;;
15831;SDS011;8016;49.928;9.372;2022-10-30T11:37:28;8.30;;;4.20;;
15831;SDS011;8016;49.928;9.372;2022-10-30T11:40:05;7.93;;;3.40;;
15831;SDS011;8016;49.928;9.372;2022-10-30T11:42:32;8.73;;;3.13;;
15831;SDS011;8016;49.928;9.372;2022-10-30T11:44:59;3.33;;;2.20;;
15831;SDS011;8016;49.928;9.372;2022-10-30T11:47:30;7.03;;;2.23;;
15831;SDS011;8016;49.928;9.372;2022-10-30T11:49:58;4.83;;;1.57;;
15831;SDS011;8016;49.928;9.372;2022-10-30T11:52:25;3.77;;;1.53;;
15831;SDS011;8016;49.928;9.372;2022-10-30T11:55:02;5.50;;;1.90;;
15831;SDS011;8016;49.928;9.372;2022-10-30T11:57:34;2.73;;;1.83;;
15831;SDS011;8016;49.928;9.372;2022-10-30T12:00:03;3.13;;;1.37;;
15831;SDS011;8016;49.928;9.372;2022-10-30T12:02:38;3.03;;;1.30;;
15831;SDS011;8016;49.928;9.372;2022-10-30T12:05:12;4.10;;;1.50;;
15831;SDS011;8016;49.928;9.372;2022-10-30T12:07:54;5.17;;;1.93;;
15831;SDS011;8016;49.928;9.372;2022-10-30T12:10:41;5.00;;;1.67;;
15831;SDS011;8016;49.928;9.372;2022-10-30T12:13:12;3.90;;;1.77;;
15831;SDS011;8016;49.928;9.372;2022-10-30T12:15:39;6.80;;;1.80;;
15831;SDS011;8016;49.928;9.372;2022-10-30T12:18:06;4.70;;;1.60;;
15831;SDS011;8016;49.928;9.372;2022-10-30T12:20:35;5.27;;;1.60;;
15831;SDS011;8016;49.928;9.372;2022-10-30T12:23:07;5.13;;;1.77;;
15831;SDS011;8016;49.928;9.372;2022-10-30T12:25:34;4.40;;;1.30;;
15831;SDS011;8016;49.928;9.372;2022-10-30T12:28:05;2.83;;;1.50;;
15831;SDS011;8016;49.928;9.372;2022-10-30T12:30:33;5.77;;;2.23;;
15831;SDS011;8016;49.928;9.372;2022-10-30T12:33:13;4.50;;;1.83;;
15831;SDS011;8016;49.928;9.372;2022-10-30T12:35:48;4.17;;;1.80;;
15831;SDS011;8016;49.928;9.372;2022-10-30T12:43:30;5.70;;;1.90;;
15831;SDS011;8016;49.928;9.372;2022-10-30T12:46:12;4.83;;;1.73;;
15831;SDS011;8016;49.928;9.372;2022-10-30T12:48:49;3.67;;;2.10;;
15831;SDS011;8016;49.928;9.372;2022-10-30T12:51:19;2.47;;;1.77;;
15831;SDS011;8016;49.928;9.372;2022-10-30T12:53:58;4.73;;;3.00;;
15831;SDS011;8016;49.928;9.372;2022-10-30T12:56:29;10.43;;;6.50;;
15831;SDS011;8016;49.928;9.372;2022-10-30T13:01:31;17.57;;;10.30;;
15831;SDS011;8016;49.928;9.372;2022-10-30T13:06:44;78.33;;;60.27;;
15831;SDS011;8016;49.928;9.372;2022-10-30T13:09:17;26.47;;;22.43;;
15831;SDS011;8016;49.928;9.372;2022-10-30T13:14:19;5.77;;;2.87;;
15831;SDS011;8016;49.928;9.372;2022-10-30T13:16:46;5.73;;;2.73;;
15831;SDS011;8016;49.928;9.372;2022-10-30T13:19:16;4.67;;;4.00;;
15831;SDS011;8016;49.928;9.372;2022-10-30T13:21:47;8.33;;;4.87;;
15831;SDS011;8016;49.928;9.372;2022-10-30T13:24:20;5.80;;;3.57;;
15831;SDS011;8016;49.928;9.372;2022-10-30T13:27:00;7.63;;;4.00;;
15831;SDS011;8016;49.928;9.372;2022-10-30T13:29:32;7.80;;;3.90;;
15831;SDS011;8016;49.928;9.372;2022-10-30T13:34:40;4.40;;;1.70;;
15831;SDS011;8016;49.928;9.372;2022-10-30T13:44:45;8.57;;;7.70;;
15831;SDS011;8016;49.928;9.372;2022-10-30T13:47:29;5.40;;;2.30;;
15831;SDS011;8016;49.928;9.372;2022-10-30T13:52:24;7.83;;;6.27;;
15831;SDS011;8016;49.928;9.372;2022-10-30T13:57:28;9.13;;;8.13;;
15831;SDS011;8016;49.928;9.372;2022-10-30T14:00:01;6.40;;;2.40;;
15831;SDS011;8016;49.928;9.372;2022-10-30T14:02:38;8.07;;;3.00;;
15831;SDS011;8016;49.928;9.372;2022-10-30T14:07:48;3.93;;;1.70;;
15831;SDS011;8016;49.928;9.372;2022-10-30T14:15:51;7.03;;;2.57;;
15831;SDS011;8016;49.928;9.372;2022-10-30T14:18:28;4.10;;;1.87;;
15831;SDS011;8016;49.928;9.372;2022-10-30T14:20:54;4.10;;;2.03;;
15831;SDS011;8016;49.928;9.372;2022-10-30T14:23:22;5.03;;;1.80;;
15831;SDS011;8016;49.928;9.372;2022-10-30T14:31:05;5.87;;;2.23;;
15831;SDS011;8016;49.928;9.372;2022-10-30T14:33:33;3.97;;;2.17;;
15831;SDS011;8016;49.928;9.372;2022-10-30T14:38:53;6.70;;;3.10;;
15831;SDS011;8016;49.928;9.372;2022-10-30T14:46:19;5.23;;;2.30;;
15831;SDS011;8016;49.928;9.372;2022-10-30T14:48:52;14.10;;;10.77;;
15831;SDS011;8016;49.928;9.372;2022-10-30T14:51:27;8.33;;;4.73;;
15831;SDS011;8016;49.928;9.372;2022-10-30T14:54:04;10.03;;;5.27;;
15831;SDS011;8016;49.928;9.372;2022-10-30T14:56:46;7.63;;;3.43;;
15831;SDS011;8016;49.928;9.372;2022-10-30T15:04:16;7.47;;;4.30;;
15831;SDS011;8016;49.928;9.372;2022-10-30T15:09:42;6.53;;;4.37;;
15831;SDS011;8016;49.928;9.372;2022-10-30T15:12:26;8.73;;;3.37;;
15831;SDS011;8016;49.928;9.372;2022-10-30T15:14:58;6.30;;;3.20;;
15831;SDS011;8016;49.928;9.372;2022-10-30T15:19:54;10.00;;;4.20;;
15831;SDS011;8016;49.928;9.372;2022-10-30T15:22:20;28.20;;;19.00;;
15831;SDS011;8016;49.928;9.372;2022-10-30T15:24:48;12.20;;;7.97;;
15831;SDS011;8016;49.928;9.372;2022-10-30T15:27:18;10.60;;;7.67;;
15831;SDS011;8016;49.928;9.372;2022-10-30T15:29:47;10.53;;;7.57;;
15831;SDS011;8016;49.928;9.372;2022-10-30T15:32:18;12.53;;;7.80;;
15831;SDS011;8016;49.928;9.372;2022-10-30T15:35:19;7.47;;;5.17;;
15831;SDS011;8016;49.928;9.372;2022-10-30T15:37:36;12.23;;;6.57;;
15831;SDS011;8016;49.928;9.372;2022-10-30T15:40:18;16.63;;;9.57;;
15831;SDS011;8016;49.928;9.372;2022-10-30T15:42:45;14.10;;;9.03;;
15831;SDS011;8016;49.928;9.372;2022-10-30T15:45:19;9.13;;;7.00;;
15831;SDS011;8016;49.928;9.372;2022-10-30T15:50:23;6.03;;;4.57;;
15831;SDS011;8016;49.928;9.372;2022-10-30T15:52:50;7.43;;;4.30;;
15831;SDS011;8016;49.928;9.372;2022-10-30T15:55:18;15.37;;;8.10;;
15831;SDS011;8016;49.928;9.372;2022-10-30T15:57:46;17.97;;;13.00;;
15831;SDS011;8016;49.928;9.372;2022-10-30T16:00:32;14.83;;;11.47;;
15831;SDS011;8016;49.928;9.372;2022-10-30T16:05:37;18.27;;;12.50;;
15831;SDS011;8016;49.928;9.372;2022-10-30T16:08:08;17.53;;;11.67;;
15831;SDS011;8016;49.928;9.372;2022-10-30T16:10:35;23.83;;;16.67;;
15831;SDS011;8016;49.928;9.372;2022-10-30T16:13:01;16.83;;;13.90;;
15831;SDS011;8016;49.928;9.372;2022-10-30T16:15:29;18.03;;;13.20;;
15831;SDS011;8016;49.928;9.372;2022-10-30T16:17:58;17.90;;;12.30;;
15831;SDS011;8016;49.928;9.372;2022-10-30T16:20:27;19.10;;;11.43;;
15831;SDS011;8016;49.928;9.372;2022-10-30T16:22:53;12.93;;;10.37;;
15831;SDS011;8016;49.928;9.372;2022-10-30T16:25:19;14.10;;;9.20;;
15831;SDS011;8016;49.928;9.372;2022-10-30T16:27:46;13.63;;;9.00;;
15831;SDS011;8016;49.928;9.372;2022-10-30T16:30:12;14.00;;;7.90;;
15831;SDS011;8016;49.928;9.372;2022-10-30T16:32:39;14.33;;;9.83;;
15831;SDS011;8016;49.928;9.372;2022-10-30T16:35:05;14.43;;;9.17;;
15831;SDS011;8016;49.928;9.372;2022-10-30T16:37:33;12.30;;;8.53;;
15831;SDS011;8016;49.928;9.372;2022-10-30T16:40:11;15.10;;;10.23;;
15831;SDS011;8016;49.928;9.372;2022-10-30T16:42:37;16.47;;;8.70;;
15831;SDS011;8016;49.928;9.372;2022-10-30T16:47:36;18.23;;;9.33;;
15831;SDS011;8016;49.928;9.372;2022-10-30T16:50:03;15.23;;;8.83;;
15831;SDS011;8016;49.928;9.372;2022-10-30T16:52:32;14.47;;;10.03;;
15831;SDS011;8016;49.928;9.372;2022-10-30T16:55:05;15.57;;;10.47;;
15831;SDS011;8016;49.928;9.372;2022-10-30T16:57:34;16.47;;;10.33;;
15831;SDS011;8016;49.928;9.372;2022-10-30T17:00:02;20.67;;;11.90;;
15831;SDS011;8016;49.928;9.372;2022-10-30T17:02:30;18.67;;;13.57;;
15831;SDS011;8016;49.928;9.372;2022-10-30T17:05:07;21.17;;;13.43;;
15831;SDS011;8016;49.928;9.372;2022-10-30T17:07:34;20.47;;;14.30;;